Buchanan, Georgia
Current Conditions -  °F | °C
As of 11:35 AM on Tuesday 27 Jan 2015 (Local Time) from KCTJ Reporting Station
Scattered Clouds Scattered Clouds  
Wind Chill: 41°   Ceiling: Unl
Heat Index: 46°   Visibility: 10mi
Dew Point: 32°   Wind: 13mph
Humidity: 57%   Direction: 320°NW
Pressure: 29.98"   Gusts: 23mph
Location:  33.8°N, 85.19°W
Report Text: KCTJ 271635Z AUTO 32011G20KT 10SM SCT034 08/00 A2998 RMK AO2
Loading
Personal Weather Stations






























Interactive Weather Map New forecast layout! Learn more

10-Day Weather Forecast

Advertisements
Track Severe Weather on mobile